createdAt,value
2018-06-15T00:02:31.424Z,18.12
2018-06-15T00:05:07.388Z,18.14
2018-06-15T00:07:41.106Z,18.17
2018-06-15T00:10:16.553Z,18.16
2018-06-15T00:12:50.973Z,18.14
2018-06-15T00:15:26.926Z,18.12
2018-06-15T00:18:02.409Z,18.15
2018-06-15T00:20:36.261Z,18.13
2018-06-15T00:23:10.891Z,18.14
2018-06-15T00:25:43.652Z,18.12
2018-06-15T00:28:18.838Z,18.09
2018-06-15T00:30:52.847Z,18.10
2018-06-15T00:33:25.173Z,18.15
2018-06-15T00:35:58.261Z,18.16
2018-06-15T00:38:32.019Z,18.20
2018-06-15T00:41:05.920Z,18.12
2018-06-15T00:43:41.984Z,18.06
2018-06-15T00:46:15.614Z,18.05
2018-06-15T00:48:54.961Z,17.96
2018-06-15T00:51:28.314Z,17.96
2018-06-15T00:54:02.627Z,17.95
2018-06-15T00:56:37.457Z,17.92
2018-06-15T00:59:08.780Z,17.93
2018-06-15T01:01:49.475Z,17.94
2018-06-15T01:04:21.968Z,17.92
2018-06-15T01:07:01.633Z,17.96
2018-06-15T01:09:34.462Z,17.99
2018-06-15T01:12:10.032Z,17.99
2018-06-15T01:14:43.624Z,17.90
2018-06-15T01:17:21.631Z,17.80
2018-06-15T01:19:56.124Z,17.82
2018-06-15T01:22:30.242Z,17.85
2018-06-15T01:25:07.123Z,17.86
2018-06-15T01:27:45.173Z,17.87
2018-06-15T01:30:17.624Z,17.94
2018-06-15T01:32:56.732Z,17.94
2018-06-15T01:35:30.454Z,17.93
2018-06-15T01:38:01.599Z,17.92
2018-06-15T01:40:37.866Z,17.92
2018-06-15T01:43:08.886Z,17.91
2018-06-15T01:45:41.125Z,17.91
2018-06-15T01:48:17.749Z,17.86
2018-06-15T01:50:52.702Z,17.88
2018-06-15T01:53:26.874Z,17.95
2018-06-15T01:56:01.167Z,17.90
2018-06-15T01:58:33.381Z,17.91
2018-06-15T02:01:07.588Z,17.90
2018-06-15T02:03:44.304Z,17.87
2018-06-15T02:06:17.766Z,17.85
2018-06-15T02:08:52.112Z,17.86
2018-06-15T02:11:26.413Z,17.86
2018-06-15T02:14:00.026Z,17.83
2018-06-15T02:16:33.506Z,17.75
2018-06-15T02:19:11.508Z,17.71
2018-06-15T02:21:44.430Z,17.68
2018-06-15T02:24:15.793Z,17.66
2018-06-15T02:26:55.011Z,17.61
2018-06-15T02:29:28.393Z,17.66
2018-06-15T02:32:02.415Z,17.71
2018-06-15T02:34:34.422Z,17.73
2018-06-15T02:37:07.365Z,17.76
2018-06-15T02:39:39.395Z,17.81
2018-06-15T02:42:13.422Z,17.85
2018-06-15T02:44:45.537Z,17.89
2018-06-15T02:47:20.793Z,17.91
2018-06-15T02:49:54.495Z,17.94
2018-06-15T02:52:29.105Z,17.99
2018-06-15T02:55:07.020Z,17.98
2018-06-15T02:57:38.355Z,17.89
2018-06-15T03:00:18.143Z,17.86
2018-06-15T03:02:54.575Z,17.85
2018-06-15T03:05:28.201Z,17.88
2018-06-15T03:08:08.434Z,17.84
2018-06-15T03:10:41.387Z,17.79
2018-06-15T03:13:21.911Z,17.67
2018-06-15T03:15:57.474Z,17.65
2018-06-15T03:18:31.427Z,17.64
2018-06-15T03:21:04.849Z,17.62
2018-06-15T03:23:42.655Z,17.69
2018-06-15T03:26:19.176Z,17.67
2018-06-15T03:28:56.659Z,17.66
2018-06-15T03:31:36.290Z,17.69
2018-06-15T03:34:08.767Z,17.71
2018-06-15T03:36:49.729Z,17.76
2018-06-15T03:39:21.539Z,17.73
2018-06-15T03:41:53.773Z,17.70
2018-06-15T03:44:27.894Z,17.66
2018-06-15T03:46:59.960Z,17.58
2018-06-15T03:49:32.941Z,17.54
2018-06-15T03:52:04.956Z,17.51
2018-06-15T03:54:38.097Z,17.57
2018-06-15T03:57:10.602Z,17.65
2018-06-15T03:59:41.146Z,17.69
2018-06-15T04:02:13.930Z,17.75
2018-06-15T04:04:48.656Z,17.73
2018-06-15T04:07:19.619Z,17.78
2018-06-15T04:09:49.983Z,17.83
2018-06-15T04:12:22.518Z,17.81
2018-06-15T04:14:53.555Z,17.78
2018-06-15T04:17:24.438Z,17.84
2018-06-15T04:19:54.292Z,17.68
2018-06-15T04:22:24.402Z,17.67
2018-06-15T04:24:54.897Z,17.74
2018-06-15T04:27:25.438Z,17.74
2018-06-15T04:29:56.114Z,17.78
2018-06-15T04:32:25.867Z,17.84
2018-06-15T04:34:55.549Z,17.84
2018-06-15T04:37:26.231Z,17.85
2018-06-15T04:39:56.040Z,17.80
2018-06-15T04:42:25.806Z,17.76
2018-06-15T04:44:56.955Z,17.82
2018-06-15T04:47:26.685Z,17.83
2018-06-15T04:49:57.430Z,17.72
2018-06-15T04:52:27.485Z,17.63
2018-06-15T04:54:57.200Z,17.51
2018-06-15T04:57:26.964Z,17.52
2018-06-15T04:59:58.416Z,17.50
2018-06-15T05:02:29.848Z,17.59
2018-06-15T05:05:01.047Z,17.61
2018-06-15T05:07:31.925Z,17.66
2018-06-15T05:10:01.601Z,17.64
2018-06-15T05:12:32.807Z,17.67
2018-06-15T05:15:05.918Z,17.67
2018-06-15T05:17:36.136Z,17.68
2018-06-15T05:20:07.010Z,17.74
2018-06-15T05:22:37.348Z,17.68
2018-06-15T05:25:07.599Z,17.68
2018-06-15T05:27:38.061Z,17.66
2018-06-15T05:30:09.293Z,17.67
2018-06-15T05:32:40.367Z,17.76
2018-06-15T05:35:10.360Z,17.79
2018-06-15T05:37:40.482Z,17.67
2018-06-15T05:40:10.118Z,17.66
2018-06-15T05:42:40.433Z,17.63
2018-06-15T05:45:10.132Z,17.72
2018-06-15T05:47:40.901Z,17.69
2018-06-15T05:50:11.224Z,17.77
2018-06-15T05:52:42.035Z,17.81
2018-06-15T05:55:12.636Z,17.80
2018-06-15T05:57:43.157Z,17.80
2018-06-15T06:00:13.656Z,17.84
2018-06-15T06:02:44.288Z,17.86
2018-06-15T06:05:15.886Z,17.93
2018-06-15T06:07:46.354Z,17.94
2018-06-15T06:10:18.771Z,17.96
2018-06-15T06:12:50.358Z,18.10
2018-06-15T06:15:20.743Z,18.07
2018-06-15T06:17:51.630Z,18.12
2018-06-15T06:20:21.325Z,18.22
2018-06-15T06:22:52.730Z,18.23
2018-06-15T06:25:24.447Z,18.33
2018-06-15T06:27:54.698Z,18.37
2018-06-15T06:30:26.529Z,18.44
2018-06-15T06:32:57.321Z,18.53
2018-06-15T06:35:27.068Z,18.59
2018-06-15T06:37:56.588Z,18.42
2018-06-15T06:40:27.215Z,18.36
2018-06-15T06:42:57.438Z,18.46
2018-06-15T06:45:27.990Z,18.47
2018-06-15T06:47:57.624Z,18.52
2018-06-15T06:50:28.130Z,18.61
2018-06-15T06:52:59.222Z,18.72
2018-06-15T06:55:30.296Z,18.79
2018-06-15T06:58:01.790Z,18.86
2018-06-15T07:00:33.447Z,18.87
2018-06-15T07:03:03.144Z,18.97
2018-06-15T07:05:33.612Z,18.91
2018-06-15T07:08:05.859Z,18.91
2018-06-15T07:10:35.810Z,18.95
2018-06-15T07:13:05.416Z,18.93
2018-06-15T07:15:35.082Z,18.96
2018-06-15T07:18:07.326Z,18.93
2018-06-15T07:20:37.850Z,18.91
2018-06-15T07:23:08.944Z,18.92
2018-06-15T07:25:39.320Z,18.97
2018-06-15T07:28:09.412Z,19.05
2018-06-15T07:30:41.011Z,19.21
2018-06-15T07:33:11.774Z,19.38
2018-06-15T07:35:44.714Z,19.48
2018-06-15T07:38:16.406Z,19.32
2018-06-15T07:40:48.668Z,19.28
2018-06-15T07:43:19.705Z,19.19
2018-06-15T07:45:50.971Z,19.21
2018-06-15T07:48:21.092Z,19.32
2018-06-15T07:50:53.767Z,19.36
2018-06-15T07:53:23.544Z,19.45
2018-06-15T07:55:53.907Z,19.58
2018-06-15T07:58:23.541Z,19.73
2018-06-15T08:00:54.335Z,19.72
2018-06-15T08:03:24.038Z,19.83
2018-06-15T08:05:53.816Z,19.92
2018-06-15T08:08:24.864Z,20.01
2018-06-15T08:10:56.415Z,19.97
2018-06-15T08:13:26.985Z,19.93
2018-06-15T08:15:56.681Z,19.87
2018-06-15T08:18:26.403Z,19.98
2018-06-15T08:20:57.239Z,20.09
2018-06-15T08:23:27.524Z,20.11
2018-06-15T08:25:57.199Z,20.21
2018-06-15T08:28:26.940Z,20.33
2018-06-15T08:30:58.583Z,20.40
2018-06-15T08:33:29.223Z,20.47
2018-06-15T08:35:59.568Z,20.56
2018-06-15T08:38:31.157Z,20.62
2018-06-15T08:41:01.441Z,20.69
2018-06-15T08:43:31.144Z,20.83
2018-06-15T08:46:01.443Z,20.87
2018-06-15T08:48:30.909Z,20.85
2018-06-15T08:51:00.628Z,20.89
2018-06-15T08:53:30.633Z,20.92
2018-06-15T08:56:01.192Z,20.81
2018-06-15T08:58:31.585Z,20.84
2018-06-15T09:01:02.229Z,20.89
2018-06-15T09:03:32.936Z,20.92
2018-06-15T09:06:02.741Z,20.85
2018-06-15T09:08:35.698Z,20.91
2018-06-15T09:11:05.428Z,20.97
2018-06-15T09:13:36.657Z,20.98
2018-06-15T09:16:06.313Z,21.07
2018-06-15T09:18:36.845Z,21.13
2018-06-15T09:21:09.022Z,21.19
2018-06-15T09:23:39.871Z,21.27
2018-06-15T09:26:09.555Z,21.29
2018-06-15T09:28:39.173Z,21.32
2018-06-15T09:31:12.633Z,21.34
2018-06-15T09:33:43.367Z,21.37
2018-06-15T09:36:13.129Z,21.42
2018-06-15T09:38:44.850Z,21.39
2018-06-15T09:41:15.016Z,21.36
2018-06-15T09:43:45.164Z,21.34
2018-06-15T09:46:16.468Z,21.38
2018-06-15T09:48:47.107Z,21.47
2018-06-15T09:51:17.003Z,21.51
2018-06-15T09:53:48.298Z,21.63
2018-06-15T09:56:18.269Z,21.74
2018-06-15T09:58:48.098Z,21.80
2018-06-15T10:01:19.224Z,21.86
2018-06-15T10:03:50.070Z,21.92
2018-06-15T10:06:20.754Z,21.91
2018-06-15T10:08:51.206Z,22.01
2018-06-15T10:11:21.757Z,22.01
2018-06-15T10:13:51.533Z,22.00
2018-06-15T10:16:22.082Z,22.03
2018-06-15T10:18:52.192Z,22.11
2018-06-15T10:21:22.728Z,22.18
2018-06-15T10:23:53.216Z,22.22
2018-06-15T10:26:23.651Z,22.37
2018-06-15T10:28:55.240Z,22.51
2018-06-15T10:31:25.032Z,22.49
2018-06-15T10:33:55.457Z,22.36
2018-06-15T10:36:25.561Z,22.15
2018-06-15T10:38:56.010Z,21.94
2018-06-15T10:41:26.010Z,21.68
2018-06-15T10:43:55.716Z,21.55
2018-06-15T10:46:25.557Z,21.36
2018-06-15T10:48:55.148Z,21.26
2018-06-15T10:51:24.756Z,21.19
2018-06-15T10:53:56.215Z,21.17
2018-06-15T10:56:26.315Z,21.13
2018-06-15T10:58:57.465Z,21.05
2018-06-15T11:01:27.042Z,20.99
2018-06-15T11:03:57.299Z,20.95
2018-06-15T11:06:27.909Z,20.86
2018-06-15T11:08:58.204Z,20.84
2018-06-15T11:11:28.178Z,20.82
2018-06-15T11:14:00.595Z,20.83
2018-06-15T11:16:30.894Z,20.83
2018-06-15T11:19:02.629Z,20.79
2018-06-15T11:21:33.101Z,20.79
2018-06-15T11:24:03.951Z,20.84
2018-06-15T11:26:34.317Z,20.88
2018-06-15T11:29:04.045Z,20.92
2018-06-15T11:31:33.746Z,20.93
2018-06-15T11:34:03.425Z,20.93
2018-06-15T11:36:33.355Z,20.89
2018-06-15T11:39:03.422Z,20.88
2018-06-15T11:41:33.176Z,20.91
2018-06-15T11:44:03.627Z,20.92
2018-06-15T11:46:34.304Z,20.94
2018-06-15T11:49:05.844Z,20.96
2018-06-15T11:51:36.344Z,21.01
2018-06-15T11:54:07.018Z,21.04
2018-06-15T11:56:36.743Z,21.10
2018-06-15T11:59:07.099Z,21.20
2018-06-15T12:01:37.680Z,21.32
2018-06-15T12:04:09.546Z,21.38
2018-06-15T12:06:39.724Z,21.46
2018-06-15T12:09:10.970Z,21.58
2018-06-15T12:11:40.871Z,21.71
2018-06-15T12:14:10.549Z,21.82
2018-06-15T12:16:41.833Z,22.00
2018-06-15T12:19:12.298Z,22.22
2018-06-15T12:21:42.284Z,22.67
2018-06-15T12:24:12.703Z,23.17
2018-06-15T12:26:43.354Z,23.61
2018-06-15T12:29:15.244Z,23.89
2018-06-15T12:31:46.392Z,24.28
2018-06-15T12:34:17.126Z,24.48
2018-06-15T12:36:47.888Z,24.68
2018-06-15T12:39:17.741Z,24.48
2018-06-15T12:41:47.436Z,24.18
2018-06-15T12:44:17.702Z,24.12
2018-06-15T12:46:47.442Z,24.39
2018-06-15T12:49:17.757Z,24.50
2018-06-15T12:51:48.605Z,24.50
2018-06-15T12:54:18.283Z,24.61
2018-06-15T12:56:49.135Z,24.85
2018-06-15T12:59:19.523Z,25.03
2018-06-15T13:01:49.809Z,25.17
2018-06-15T13:04:20.267Z,25.35
2018-06-15T13:06:53.615Z,25.62
2018-06-15T13:09:24.241Z,25.79
2018-06-15T13:11:55.301Z,25.77
2018-06-15T13:14:25.759Z,25.86
2018-06-15T13:16:55.492Z,25.84
2018-06-15T13:19:25.689Z,25.83
2018-06-15T13:21:57.578Z,25.69
2018-06-15T13:24:27.467Z,25.40
2018-06-15T13:26:57.157Z,25.46
2018-06-15T13:29:27.826Z,25.42
2018-06-15T13:32:03.518Z,25.51
2018-06-15T13:34:33.307Z,25.76
2018-06-15T13:37:05.432Z,25.60
2018-06-15T13:39:36.088Z,25.28
2018-06-15T13:42:08.157Z,25.01
2018-06-15T13:44:38.526Z,24.81
2018-06-15T13:47:08.356Z,24.60
2018-06-15T13:49:37.984Z,24.76
2018-06-15T13:52:09.003Z,25.06
2018-06-15T13:54:38.995Z,25.47
2018-06-15T13:57:08.624Z,25.77
2018-06-15T13:59:38.967Z,25.83
2018-06-15T14:02:08.663Z,25.92
2018-06-15T14:04:38.281Z,26.14
2018-06-15T14:07:09.620Z,26.14
2018-06-15T14:09:39.364Z,26.13
2018-06-15T14:12:09.154Z,26.17
2018-06-15T14:14:39.023Z,26.08
2018-06-15T14:17:10.045Z,26.29
2018-06-15T14:19:39.921Z,26.63
2018-06-15T14:22:10.614Z,26.68
2018-06-15T14:24:42.257Z,26.41
2018-06-15T14:27:11.998Z,26.58
2018-06-15T14:29:41.805Z,26.85
2018-06-15T14:32:11.833Z,27.02
2018-06-15T14:34:41.811Z,26.95
2018-06-15T14:37:11.514Z,26.95
2018-06-15T14:39:41.639Z,27.01
2018-06-15T14:42:11.387Z,26.86
2018-06-15T14:44:42.286Z,26.75
2018-06-15T14:47:12.018Z,26.65
2018-06-15T14:49:42.668Z,26.71
2018-06-15T14:52:14.214Z,26.57
2018-06-15T14:54:43.995Z,26.41
2018-06-15T14:57:14.593Z,26.23
2018-06-15T14:59:45.642Z,26.00
2018-06-15T15:02:15.580Z,25.82
2018-06-15T15:04:47.398Z,25.71
2018-06-15T15:07:20.452Z,25.58
2018-06-15T15:09:50.119Z,25.40
2018-06-15T15:12:20.841Z,25.38
2018-06-15T15:14:51.429Z,25.35
2018-06-15T15:17:22.497Z,25.41
2018-06-15T15:19:54.455Z,25.37
2018-06-15T15:22:24.481Z,25.39
2018-06-15T15:24:56.886Z,25.49
2018-06-15T15:27:27.596Z,25.57
2018-06-15T15:29:58.049Z,25.88
2018-06-15T15:32:27.829Z,26.23
2018-06-15T15:34:57.681Z,26.69
2018-06-15T15:37:27.833Z,26.97
2018-06-15T15:39:57.493Z,26.82
2018-06-15T15:42:27.150Z,26.98
2018-06-15T15:44:56.958Z,26.97
2018-06-15T15:47:26.623Z,26.68
2018-06-15T15:49:56.722Z,26.42
2018-06-15T15:52:27.117Z,26.14
2018-06-15T15:54:57.496Z,25.95
2018-06-15T15:57:27.397Z,26.01
2018-06-15T15:59:57.409Z,26.50
2018-06-15T16:02:27.308Z,27.20
2018-06-15T16:04:57.779Z,27.56
2018-06-15T16:07:27.596Z,27.73
2018-06-15T16:09:57.475Z,28.01
2018-06-15T16:12:27.293Z,27.62
2018-06-15T16:14:57.253Z,27.49
2018-06-15T16:17:27.378Z,27.20
2018-06-15T16:19:57.444Z,27.24
2018-06-15T16:22:27.267Z,27.29
2018-06-15T16:24:56.978Z,27.05
2018-06-15T16:27:27.193Z,27.00
2018-06-15T16:29:57.474Z,27.01
2018-06-15T16:32:27.154Z,26.97
2018-06-15T16:34:58.995Z,26.74
2018-06-15T16:37:28.706Z,26.75
2018-06-15T16:40:00.307Z,26.86
2018-06-15T16:42:30.529Z,26.58
2018-06-15T16:45:00.291Z,26.48
2018-06-15T16:47:30.980Z,26.29
2018-06-15T16:50:00.660Z,26.14
2018-06-15T16:52:31.246Z,26.24
2018-06-15T16:55:01.105Z,26.35
2018-06-15T16:57:30.852Z,26.30
2018-06-15T17:00:01.576Z,26.28
2018-06-15T17:02:31.286Z,26.11
2018-06-15T17:05:01.162Z,25.87
2018-06-15T17:07:30.906Z,25.69
2018-06-15T17:10:01.378Z,25.57
2018-06-15T17:12:32.585Z,25.34
2018-06-15T17:15:02.603Z,25.26
2018-06-15T17:17:32.245Z,25.43
2018-06-15T17:20:02.504Z,25.58
2018-06-15T17:22:34.536Z,25.67
2018-06-15T17:25:04.840Z,25.67
2018-06-15T17:27:34.590Z,25.72
2018-06-15T17:30:04.466Z,25.80
2018-06-15T17:32:34.206Z,25.95
2018-06-15T17:35:03.988Z,25.94
2018-06-15T17:37:34.788Z,25.99
2018-06-15T17:40:04.532Z,25.72
2018-06-15T17:42:34.254Z,25.63
2018-06-15T17:45:04.080Z,25.60
2018-06-15T17:47:34.864Z,25.25
2018-06-15T17:50:04.707Z,25.05
2018-06-15T17:52:34.783Z,24.83
2018-06-15T17:55:06.039Z,24.74
2018-06-15T17:57:36.093Z,24.66
2018-06-15T18:00:07.073Z,24.56
2018-06-15T18:02:37.123Z,24.50
2018-06-15T18:05:07.477Z,24.40
2018-06-15T18:07:37.568Z,24.33
2018-06-15T18:10:07.357Z,24.29
2018-06-15T18:12:37.700Z,24.21
2018-06-15T18:15:08.467Z,24.18
2018-06-15T18:17:38.303Z,24.02
2018-06-15T18:20:08.623Z,23.98
2018-06-15T18:22:38.693Z,23.92
2018-06-15T18:25:08.514Z,23.79
2018-06-15T18:27:38.194Z,23.69
2018-06-15T18:30:07.930Z,23.56
2018-06-15T18:32:37.731Z,23.46
2018-06-15T18:35:07.415Z,23.38
2018-06-15T18:37:37.122Z,23.30
2018-06-15T18:40:07.005Z,23.19
2018-06-15T18:42:37.124Z,23.11
2018-06-15T18:45:06.869Z,22.98
2018-06-15T18:47:36.817Z,22.88
2018-06-15T18:50:07.723Z,22.82
2018-06-15T18:52:38.001Z,22.68
2018-06-15T18:55:08.200Z,22.60
2018-06-15T18:57:38.040Z,22.55
2018-06-15T19:00:08.206Z,22.52
2018-06-15T19:02:38.356Z,22.48
2018-06-15T19:05:08.386Z,22.45
2018-06-15T19:07:38.097Z,22.43
2018-06-15T19:10:08.020Z,22.41
2018-06-15T19:12:37.698Z,22.38
2018-06-15T19:15:07.934Z,22.31
2018-06-15T19:17:37.950Z,22.26
2018-06-15T19:20:07.820Z,22.19
2018-06-15T19:22:38.203Z,22.17
2018-06-15T19:25:09.098Z,22.10
2018-06-15T19:27:38.959Z,22.05
2018-06-15T19:30:08.666Z,22.00
2018-06-15T19:32:38.554Z,21.99
2018-06-15T19:35:08.291Z,21.92
2018-06-15T19:37:38.351Z,21.84
2018-06-15T19:40:08.143Z,21.84
2018-06-15T19:42:37.932Z,21.77
2018-06-15T19:45:07.892Z,21.74
2018-06-15T19:47:37.535Z,21.68
2018-06-15T19:50:07.884Z,21.65
2018-06-15T19:52:38.481Z,21.59
2018-06-15T19:55:08.189Z,21.51
2018-06-15T19:57:37.907Z,21.54
2018-06-15T20:00:07.807Z,21.51
2018-06-15T20:02:37.249Z,21.45
2018-06-15T20:05:07.233Z,21.41
2018-06-15T20:07:36.954Z,21.39
2018-06-15T20:10:06.687Z,21.35
2018-06-15T20:12:36.373Z,21.34
2018-06-15T20:15:07.110Z,21.30
2018-06-15T20:17:38.177Z,21.27
2018-06-15T20:20:08.620Z,21.25
2018-06-15T20:22:38.240Z,21.20
2018-06-15T20:25:08.123Z,21.17
2018-06-15T20:27:39.331Z,21.15
2018-06-15T20:30:09.076Z,21.09
2018-06-15T20:32:38.787Z,21.05
2018-06-15T20:35:08.538Z,21.06
2018-06-15T20:37:38.340Z,21.01
2018-06-15T20:40:07.944Z,20.99
2018-06-15T20:42:38.554Z,20.96
2018-06-15T20:45:08.220Z,20.93
2018-06-15T20:47:37.997Z,20.90
2018-06-15T20:50:08.271Z,20.86
2018-06-15T20:52:38.705Z,20.81
2018-06-15T20:55:09.445Z,20.78
2018-06-15T20:57:39.058Z,20.75
2018-06-15T21:00:08.977Z,20.73
2018-06-15T21:02:38.703Z,20.69
2018-06-15T21:05:08.502Z,20.65
2018-06-15T21:07:38.625Z,20.61
2018-06-15T21:10:08.437Z,20.57
2018-06-15T21:12:38.230Z,20.50
2018-06-15T21:15:08.121Z,20.47
2018-06-15T21:17:37.824Z,20.39
2018-06-15T21:20:08.327Z,20.37
2018-06-15T21:22:37.995Z,20.35
2018-06-15T21:25:08.627Z,20.29
2018-06-15T21:27:40.348Z,20.28
2018-06-15T21:30:10.399Z,20.25
2018-06-15T21:32:40.221Z,20.24
2018-06-15T21:35:10.125Z,20.19
2018-06-15T21:37:39.880Z,20.15
2018-06-15T21:40:09.594Z,20.17
2018-06-15T21:42:39.435Z,20.15
2018-06-15T21:45:09.296Z,20.11
2018-06-15T21:47:39.150Z,20.07
2018-06-15T21:50:08.662Z,20.03
2018-06-15T21:52:39.639Z,19.99
2018-06-15T21:55:09.441Z,20.00
2018-06-15T21:57:39.320Z,19.98
2018-06-15T22:00:09.927Z,19.96
2018-06-15T22:02:39.680Z,19.93
2018-06-15T22:05:09.386Z,19.91
2018-06-15T22:07:39.188Z,19.87
2018-06-15T22:10:09.122Z,19.83
2018-06-15T22:12:38.815Z,19.80
2018-06-15T22:15:08.565Z,19.75
2018-06-15T22:17:38.235Z,19.73
2018-06-15T22:20:07.851Z,19.71
2018-06-15T22:22:37.556Z,19.68
2018-06-15T22:25:07.200Z,19.62
2018-06-15T22:27:36.897Z,19.60
2018-06-15T22:30:07.222Z,19.53
2018-06-15T22:32:37.383Z,19.48
2018-06-15T22:35:07.195Z,19.47
2018-06-15T22:37:36.804Z,19.42
2018-06-15T22:40:06.485Z,19.41
2018-06-15T22:42:36.376Z,19.38
2018-06-15T22:45:06.173Z,19.35
2018-06-15T22:47:35.774Z,19.31
2018-06-15T22:50:05.452Z,19.25
2018-06-15T22:52:35.139Z,19.23
2018-06-15T22:55:05.857Z,19.22
2018-06-15T22:57:36.501Z,19.22
2018-06-15T23:00:07.266Z,19.19
2018-06-15T23:02:38.288Z,19.15
2018-06-15T23:05:07.975Z,19.13
2018-06-15T23:07:37.774Z,19.09
2018-06-15T23:10:07.548Z,19.07
2018-06-15T23:12:37.223Z,19.05
2018-06-15T23:15:07.229Z,19.01
2018-06-15T23:17:37.909Z,19.00
2018-06-15T23:20:07.772Z,18.97
2018-06-15T23:22:38.809Z,18.92
2018-06-15T23:25:09.310Z,18.90
2018-06-15T23:27:39.076Z,18.91
2018-06-15T23:30:08.735Z,18.86
2018-06-15T23:32:39.288Z,18.82
2018-06-15T23:35:08.915Z,18.82
2018-06-15T23:37:38.686Z,18.79
2018-06-15T23:40:09.170Z,18.80
2018-06-15T23:42:38.799Z,18.83
2018-06-15T23:45:08.625Z,18.86
2018-06-15T23:47:38.759Z,18.85
2018-06-15T23:50:09.846Z,18.85
2018-06-15T23:52:39.527Z,18.83
2018-06-15T23:55:09.796Z,18.82
2018-06-15T23:57:39.535Z,18.79
